createdAt,value
2017-09-06T00:00:22.086Z,69.53
2017-09-06T00:01:30.977Z,69.81
2017-09-06T00:02:39.809Z,70.01
2017-09-06T00:03:48.642Z,69.62
2017-09-06T00:04:57.475Z,69.81
2017-09-06T00:06:06.310Z,70.2
2017-09-06T00:07:15.137Z,70.49
2017-09-06T00:08:23.971Z,70.29
2017-09-06T00:09:32.799Z,70.01
2017-09-06T00:10:41.633Z,70.1
2017-09-06T00:11:50.469Z,70.01
2017-09-06T00:12:59.307Z,70.58
2017-09-06T00:14:08.130Z,70.29
2017-09-06T00:15:16.963Z,70.29
2017-09-06T00:16:25.791Z,70.68
2017-09-06T00:17:34.625Z,70.39
2017-09-06T00:18:43.457Z,70.01
2017-09-06T00:19:52.288Z,70.49
2017-09-06T00:21:01.119Z,70.49
2017-09-06T00:22:09.948Z,70.01
2017-09-06T00:23:18.781Z,70.39
2017-09-06T00:24:27.611Z,70.49
2017-09-06T00:25:36.445Z,70.74
2017-09-06T00:26:45.279Z,70.1
2017-09-06T00:27:54.111Z,69.97
2017-09-06T00:29:02.945Z,70.58
2017-09-06T00:30:11.775Z,70.01
2017-09-06T00:31:20.607Z,70.39
2017-09-06T00:32:29.439Z,70.26
2017-09-06T00:33:38.273Z,70.78
2017-09-06T00:34:47.101Z,70.17
2017-09-06T00:35:55.938Z,70.36
2017-09-06T00:37:04.765Z,70.64
2017-09-06T00:38:13.594Z,70.55
2017-09-06T00:39:22.426Z,70.78
2017-09-06T00:40:31.581Z,70.87
2017-09-06T00:41:40.409Z,70.68
2017-09-06T00:42:49.249Z,70.49
2017-09-06T00:43:58.080Z,70.49
2017-09-06T00:45:06.908Z,70.36
2017-09-06T00:46:15.735Z,70.93
2017-09-06T00:47:24.572Z,70.64
2017-09-06T00:48:33.403Z,70.84
2017-09-06T00:49:42.237Z,70.84
2017-09-06T00:50:51.066Z,70.45
2017-09-06T00:51:59.893Z,70.93
2017-09-06T00:53:08.727Z,70.84
2017-09-06T00:54:17.559Z,71.03
2017-09-06T00:55:26.389Z,71.22
2017-09-06T00:56:35.221Z,71.7
2017-09-06T00:57:44.052Z,71.41
2017-09-06T00:58:52.880Z,71.51
2017-09-06T01:00:01.716Z,71.61
2017-09-06T01:01:10.551Z,71.89
2017-09-06T01:02:19.378Z,71.51
2017-09-06T01:03:28.211Z,71.61
2017-09-06T01:04:37.038Z,72.08
2017-09-06T01:05:45.872Z,71.89
2017-09-06T01:06:54.702Z,71.98
2017-09-06T01:08:03.535Z,71.8
2017-09-06T01:09:12.365Z,71.89
2017-09-06T01:10:21.197Z,71.98
2017-09-06T01:11:30.025Z,71.98
2017-09-06T01:12:38.861Z,72.08
2017-09-06T01:13:47.689Z,72.56
2017-09-06T01:14:56.514Z,72.37
2017-09-06T01:16:05.349Z,72.37
2017-09-06T01:17:14.180Z,72.28
2017-09-06T01:18:23.012Z,72.66
2017-09-06T01:19:31.843Z,72.66
2017-09-06T01:20:40.671Z,72.47
2017-09-06T01:21:49.505Z,73.14
2017-09-06T01:22:58.335Z,72.85
2017-09-06T01:24:07.173Z,72.47
2017-09-06T01:25:16.000Z,72.47
2017-09-06T01:26:24.839Z,73.24
2017-09-06T01:27:33.664Z,72.95
2017-09-06T01:28:42.497Z,73.04
2017-09-06T01:29:51.327Z,73.14
2017-09-06T01:31:00.159Z,73.24
2017-09-06T01:32:08.990Z,73.24
2017-09-06T01:33:17.819Z,73.24
2017-09-06T01:34:26.653Z,73.14
2017-09-06T01:35:35.479Z,73.24
2017-09-06T01:36:44.313Z,73.14
2017-09-06T01:37:53.147Z,73.24
2017-09-06T01:39:01.973Z,73.24
2017-09-06T01:40:10.804Z,73.33
2017-09-06T01:41:19.633Z,73.43
2017-09-06T01:42:28.469Z,73.62
2017-09-06T01:43:37.295Z,73.43
2017-09-06T01:44:46.127Z,73.91
2017-09-06T01:45:54.958Z,73.72
2017-09-06T01:47:03.789Z,73.62
2017-09-06T01:48:12.623Z,73.43
2017-09-06T01:49:21.450Z,73.14
2017-09-06T01:50:30.283Z,73.62
2017-09-06T01:51:39.441Z,73.72
2017-09-06T01:52:48.270Z,73.72
2017-09-06T01:53:57.102Z,73.62
2017-09-06T01:55:05.931Z,73.81
2017-09-06T01:56:14.762Z,74.48
2017-09-06T01:57:23.590Z,73.81
2017-09-06T01:58:32.420Z,73.33
2017-09-06T01:59:41.252Z,73.14
2017-09-06T02:00:50.078Z,73.14
2017-09-06T02:01:58.916Z,73.14
2017-09-06T02:03:07.741Z,72.95
2017-09-06T02:04:16.575Z,72.47
2017-09-06T02:05:25.408Z,72.66
2017-09-06T02:06:34.234Z,72.75
2017-09-06T02:07:43.062Z,72.95
2017-09-06T02:08:51.890Z,72.37
2017-09-06T02:10:00.722Z,72.37
2017-09-06T02:11:09.556Z,72.47
2017-09-06T02:12:18.394Z,72.47
2017-09-06T02:13:27.220Z,72.37
2017-09-06T02:14:36.046Z,72.28
2017-09-06T02:15:44.876Z,72.47
2017-09-06T02:16:53.706Z,72.56
2017-09-06T02:18:02.537Z,72.47
2017-09-06T02:19:11.370Z,72.47
2017-09-06T02:20:20.198Z,72.28
2017-09-06T02:21:29.028Z,72.28
2017-09-06T02:22:37.855Z,72.18
2017-09-06T02:23:46.688Z,72.33
2017-09-06T02:24:55.511Z,72.18
2017-09-06T02:26:04.347Z,72.28
2017-09-06T02:27:13.177Z,72.33
2017-09-06T02:28:22.007Z,72.28
2017-09-06T02:29:30.838Z,72.18
2017-09-06T02:30:39.674Z,72.37
2017-09-06T02:31:48.507Z,72.43
2017-09-06T02:32:57.335Z,72.47
2017-09-06T02:34:06.165Z,72.37
2017-09-06T02:35:14.995Z,72.37
2017-09-06T02:36:23.834Z,72.37
2017-09-06T02:37:32.665Z,72.56
2017-09-06T02:38:41.494Z,72.08
2017-09-06T02:39:50.329Z,72.14
2017-09-06T02:40:59.488Z,72.37
2017-09-06T02:42:08.318Z,72.28
2017-09-06T02:43:17.151Z,72.28
2017-09-06T02:44:25.980Z,72.18
2017-09-06T02:45:34.808Z,72.08
2017-09-06T02:46:43.640Z,71.98
2017-09-06T02:47:52.467Z,71.89
2017-09-06T02:49:01.295Z,71.89
2017-09-06T02:50:10.131Z,72.08
2017-09-06T02:51:18.968Z,71.61
2017-09-06T02:52:27.791Z,71.51
2017-09-06T02:53:36.621Z,72.28
2017-09-06T02:54:45.448Z,71.98
2017-09-06T02:55:54.280Z,72.37
2017-09-06T02:57:03.111Z,72.66
2017-09-06T02:58:11.941Z,73.04
2017-09-06T02:59:20.773Z,72.47
2017-09-06T03:00:29.603Z,72.85
2017-09-06T03:01:38.434Z,72.08
2017-09-06T03:02:47.263Z,71.51
2017-09-06T03:03:56.094Z,71.7
2017-09-06T03:05:05.257Z,71.51
2017-09-06T03:06:14.087Z,70.64
2017-09-06T03:07:23.514Z,70.64
2017-09-06T03:08:32.364Z,70.74
2017-09-06T03:09:41.215Z,70.93
2017-09-06T03:10:50.067Z,70.84
2017-09-06T03:11:58.916Z,70.55
2017-09-06T03:13:07.777Z,70.36
2017-09-06T03:14:16.626Z,70.26
2017-09-06T03:15:25.472Z,70.17
2017-09-06T03:16:34.363Z,70.45
2017-09-06T03:17:43.541Z,69.87
2017-09-06T03:18:52.389Z,69.87
2017-09-06T03:20:01.240Z,70.55
2017-09-06T03:21:10.090Z,70.45
2017-09-06T03:22:18.940Z,69.87
2017-09-06T03:23:27.791Z,69.87
2017-09-06T03:24:36.638Z,70.45
2017-09-06T03:25:45.486Z,69.78
2017-09-06T03:26:54.338Z,69.87
2017-09-06T03:28:03.190Z,70.45
2017-09-06T03:29:12.038Z,70.55
2017-09-06T03:30:20.889Z,70.36
2017-09-06T03:31:29.739Z,69.97
2017-09-06T03:32:38.588Z,70.07
2017-09-06T03:33:47.436Z,70.17
2017-09-06T03:34:56.287Z,70.07
2017-09-06T03:36:05.135Z,70.07
2017-09-06T03:37:13.984Z,70.36
2017-09-06T03:38:22.834Z,70.55
2017-09-06T03:39:31.683Z,70.84
2017-09-06T03:40:40.533Z,70.74
2017-09-06T03:41:49.385Z,70.64
2017-09-06T03:42:58.236Z,70.74
2017-09-06T03:44:07.085Z,70.64
2017-09-06T03:45:15.937Z,70.64
2017-09-06T03:46:24.784Z,70.74
2017-09-06T03:47:33.635Z,70.84
2017-09-06T03:48:42.484Z,70.64
2017-09-06T03:49:51.332Z,70.64
2017-09-06T03:51:00.183Z,70.45
2017-09-06T03:52:09.035Z,70.36
2017-09-06T03:53:17.884Z,70.45
2017-09-06T03:54:26.736Z,70.74
2017-09-06T03:55:35.585Z,71.03
2017-09-06T03:56:44.434Z,71.51
2017-09-06T03:57:53.282Z,71.31
2017-09-06T03:59:02.132Z,71.41
2017-09-06T04:00:10.982Z,71.51
2017-09-06T04:01:19.830Z,71.51
2017-09-06T04:02:28.685Z,71.51
2017-09-06T04:03:37.534Z,71.51
2017-09-06T04:04:46.384Z,71.31
2017-09-06T04:05:55.233Z,71.61
2017-09-06T04:07:04.081Z,71.51
2017-09-06T04:08:12.932Z,71.22
2017-09-06T04:09:21.783Z,71.22
2017-09-06T04:10:30.629Z,71.8
2017-09-06T04:11:39.485Z,71.51
2017-09-06T04:12:48.331Z,71.51
2017-09-06T04:13:57.181Z,71.98
2017-09-06T04:15:06.028Z,71.89
2017-09-06T04:16:14.878Z,71.98
2017-09-06T04:17:23.729Z,72.08
2017-09-06T04:18:32.579Z,71.98
2017-09-06T04:19:41.429Z,71.98
2017-09-06T04:20:50.279Z,72.56
2017-09-06T04:21:59.127Z,72.28
2017-09-06T04:23:07.979Z,72.28
2017-09-06T04:24:16.828Z,72.37
2017-09-06T04:25:25.678Z,72.18
2017-09-06T04:26:34.526Z,72.28
2017-09-06T04:27:43.381Z,72.37
2017-09-06T04:28:52.229Z,72.95
2017-09-06T04:30:01.082Z,72.95
2017-09-06T04:31:09.929Z,73.04
2017-09-06T04:32:18.781Z,73.14
2017-09-06T04:33:27.634Z,73.33
2017-09-06T04:34:36.489Z,73.04
2017-09-06T04:35:45.339Z,73.04
2017-09-06T04:36:54.190Z,73.62
2017-09-06T04:38:03.036Z,73.52
2017-09-06T04:39:11.885Z,73.52
2017-09-06T04:40:20.739Z,73.52
2017-09-06T04:41:29.590Z,73.52
2017-09-06T04:42:38.438Z,73.62
2017-09-06T04:43:47.287Z,73.72
2017-09-06T04:44:56.137Z,73.91
2017-09-06T04:46:04.982Z,73.72
2017-09-06T04:47:13.832Z,74.01
2017-09-06T04:48:22.684Z,73.91
2017-09-06T04:49:31.860Z,73.81
2017-09-06T04:50:40.707Z,73.62
2017-09-06T04:51:49.558Z,73.81
2017-09-06T04:52:58.440Z,73.81
2017-09-06T04:54:07.261Z,73.81
2017-09-06T04:55:16.112Z,73.81
2017-09-06T04:56:24.959Z,73.62
2017-09-06T04:57:33.809Z,74.29
2017-09-06T04:58:42.657Z,74.1
2017-09-06T04:59:51.507Z,74.1
2017-09-06T05:01:00.360Z,74.01
2017-09-06T05:02:09.210Z,74.1
2017-09-06T05:03:18.057Z,74.29
2017-09-06T05:04:26.907Z,74.19
2017-09-06T05:05:35.758Z,74.19
2017-09-06T05:06:44.617Z,74.1
2017-09-06T05:07:53.510Z,74.58
2017-09-06T05:09:02.362Z,74.39
2017-09-06T05:10:11.212Z,74.19
2017-09-06T05:11:20.058Z,74.19
2017-09-06T05:12:28.950Z,74.48
2017-09-06T05:13:37.803Z,74.39
2017-09-06T05:14:46.656Z,74.1
2017-09-06T05:15:55.508Z,74.29
2017-09-06T05:17:04.358Z,74.01
2017-09-06T05:18:13.204Z,74.19
2017-09-06T05:19:22.058Z,74.1
2017-09-06T05:20:30.907Z,74.19
2017-09-06T05:21:39.761Z,74.39
2017-09-06T05:22:48.612Z,74.19
2017-09-06T05:23:57.458Z,74.29
2017-09-06T05:25:06.308Z,74.01
2017-09-06T05:26:15.159Z,73.91
2017-09-06T05:27:24.009Z,74.19
2017-09-06T05:28:32.860Z,74.19
2017-09-06T05:29:41.711Z,74.01
2017-09-06T05:30:50.559Z,74.29
2017-09-06T05:31:59.406Z,74.29
2017-09-06T05:33:08.258Z,74.48
2017-09-06T05:34:17.442Z,73.91
2017-09-06T05:35:26.694Z,74.58
2017-09-06T05:36:35.746Z,74.58
2017-09-06T05:37:44.643Z,74.48
2017-09-06T05:38:53.568Z,74.68
2017-09-06T05:40:02.461Z,74.19
2017-09-06T05:41:11.358Z,74.48
2017-09-06T05:42:20.309Z,74.68
2017-09-06T05:43:29.203Z,74.87
2017-09-06T05:44:38.134Z,75.35
2017-09-06T05:45:47.015Z,75.35
2017-09-06T05:46:56.232Z,75.15
2017-09-06T05:48:05.085Z,74.87
2017-09-06T05:49:13.989Z,75.06
2017-09-06T05:50:22.843Z,75.15
2017-09-06T05:51:31.693Z,75.06
2017-09-06T05:52:40.542Z,75.54
2017-09-06T05:53:49.749Z,75.54
2017-09-06T05:54:58.605Z,75.54
2017-09-06T05:56:07.455Z,75.06
2017-09-06T05:57:16.310Z,75.57
2017-09-06T05:58:25.160Z,75.96
2017-09-06T05:59:34.006Z,75.96
2017-09-06T06:00:42.858Z,76.12
2017-09-06T06:01:51.750Z,75.92
2017-09-06T06:03:00.654Z,75.92
2017-09-06T06:04:09.613Z,75.96
2017-09-06T06:05:18.553Z,75.77
2017-09-06T06:06:27.571Z,76.12
2017-09-06T06:07:36.763Z,76.34
2017-09-06T06:08:46.008Z,76.15
2017-09-06T06:09:54.856Z,76.15
2017-09-06T06:11:03.750Z,76.54
2017-09-06T06:12:12.650Z,76.25
2017-09-06T06:13:21.947Z,76.64
2017-09-06T06:14:31.105Z,76.73
2017-09-06T06:15:39.957Z,76.73
2017-09-06T06:16:49.171Z,76.69
2017-09-06T06:17:58.070Z,76.73
2017-09-06T06:19:07.145Z,76.73
2017-09-06T06:20:16.117Z,76.4
2017-09-06T06:21:25.288Z,76.4
2017-09-06T06:22:34.218Z,77.01
2017-09-06T06:23:43.124Z,76.98
2017-09-06T06:24:52.038Z,76.54
2017-09-06T06:26:00.990Z,77.08
2017-09-06T06:27:10.170Z,76.79
2017-09-06T06:28:19.108Z,76.82
2017-09-06T06:29:28.286Z,77.01
2017-09-06T06:30:37.606Z,77.17
2017-09-06T06:31:46.815Z,77.11
2017-09-06T06:32:55.683Z,76.92
2017-09-06T06:34:04.832Z,76.92
2017-09-06T06:35:13.723Z,76.64
2017-09-06T06:36:22.618Z,77.21
2017-09-06T06:37:31.577Z,76.92
2017-09-06T06:38:40.428Z,76.54
2017-09-06T06:39:49.361Z,77.21
2017-09-06T06:40:58.216Z,76.64
2017-09-06T06:42:07.066Z,76.64
2017-09-06T06:43:15.918Z,76.73
2017-09-06T06:44:24.768Z,76.73
2017-09-06T06:45:33.618Z,77.11
2017-09-06T06:46:42.469Z,76.82
2017-09-06T06:47:51.321Z,77.01
2017-09-06T06:49:00.171Z,77.01
2017-09-06T06:50:09.024Z,76.92
2017-09-06T06:51:18.027Z,77.01
2017-09-06T06:52:26.877Z,77.01
2017-09-06T06:53:35.854Z,77.11
2017-09-06T06:54:44.821Z,76.92
2017-09-06T06:55:54.004Z,76.73
2017-09-06T06:57:03.597Z,76.82
2017-09-06T06:58:12.841Z,76.82
2017-09-06T06:59:21.694Z,76.92
2017-09-06T07:00:30.701Z,76.82
2017-09-06T07:01:39.641Z,77.01
2017-09-06T07:02:48.544Z,77.01
2017-09-06T07:03:57.397Z,76.92
2017-09-06T07:05:06.433Z,76.82
2017-09-06T07:06:15.344Z,76.73
2017-09-06T07:07:24.283Z,76.73
2017-09-06T07:08:33.160Z,76.82
2017-09-06T07:09:42.330Z,76.86
2017-09-06T07:10:51.251Z,76.96
2017-09-06T07:12:00.456Z,76.86
2017-09-06T07:13:09.351Z,76.86
2017-09-06T07:14:18.311Z,77.5
2017-09-06T07:15:27.160Z,76.82
2017-09-06T07:16:36.555Z,76.92
2017-09-06T07:17:45.499Z,76.96
2017-09-06T07:18:54.736Z,77.63
2017-09-06T07:20:03.958Z,77.44
2017-09-06T07:21:12.836Z,77.73
2017-09-06T07:22:21.820Z,77.73
2017-09-06T07:23:30.894Z,77.92
2017-09-06T07:24:39.741Z,77.73
2017-09-06T07:25:48.591Z,77.5
2017-09-06T07:26:57.444Z,77.53
2017-09-06T07:28:06.295Z,77.53
2017-09-06T07:29:15.146Z,77.73
2017-09-06T07:30:23.999Z,78.11
2017-09-06T07:31:32.882Z,78.02
2017-09-06T07:32:41.849Z,77.92
2017-09-06T07:33:51.852Z,78.11
2017-09-06T07:35:01.370Z,77.92
2017-09-06T07:36:10.326Z,77.83
2017-09-06T07:37:19.346Z,77.73
2017-09-06T07:38:28.438Z,78.21
2017-09-06T07:39:37.613Z,78.21
2017-09-06T07:40:46.467Z,78.11
2017-09-06T07:41:55.637Z,78.11
2017-09-06T07:43:04.486Z,78.11
2017-09-06T07:44:13.341Z,78.02
2017-09-06T07:45:22.194Z,77.83
2017-09-06T07:46:31.043Z,77.92
2017-09-06T07:47:39.897Z,78.15
2017-09-06T07:48:48.753Z,78.59
2017-09-06T07:49:57.596Z,78.44
2017-09-06T07:51:06.773Z,78.25
2017-09-06T07:52:15.626Z,78.44
2017-09-06T07:53:24.476Z,78.78
2017-09-06T07:54:33.326Z,78.59
2017-09-06T07:55:42.178Z,78.92
2017-09-06T07:56:51.030Z,79.11
2017-09-06T07:57:59.887Z,78.98
2017-09-06T07:59:08.739Z,79.5
2017-09-06T08:00:17.587Z,79.6
2017-09-06T08:01:26.438Z,79.27
2017-09-06T08:02:35.292Z,79.98
2017-09-06T08:03:44.467Z,79.84
2017-09-06T08:04:53.485Z,79.88
2017-09-06T08:06:02.622Z,79.79
2017-09-06T08:07:12.079Z,79.5
2017-09-06T08:08:21.241Z,79.6
2017-09-06T08:09:30.271Z,80.07
2017-09-06T08:10:39.178Z,80.07
2017-09-06T08:11:48.035Z,79.98
2017-09-06T08:12:56.882Z,80.07
2017-09-06T08:14:06.057Z,80.07
2017-09-06T08:15:14.906Z,79.98
2017-09-06T08:16:23.759Z,79.88
2017-09-06T08:17:32.608Z,80.55
2017-09-06T08:18:41.460Z,81.52
2017-09-06T08:19:50.315Z,81.84
2017-09-06T08:20:59.169Z,82.04
2017-09-06T08:22:08.020Z,82.04
2017-09-06T08:23:16.873Z,82.86
2017-09-06T08:24:25.724Z,82.67
2017-09-06T08:25:34.578Z,82.67
2017-09-06T08:26:43.431Z,83.25
2017-09-06T08:27:52.280Z,83.83
2017-09-06T08:29:01.131Z,85.84
2017-09-06T08:30:10.312Z,89.21
2017-09-06T08:31:19.165Z,91.99
2017-09-06T08:32:28.015Z,95.07
2017-09-06T08:33:36.865Z,96.32
2017-09-06T08:34:45.715Z,98.39
2017-09-06T08:35:54.563Z,99.92
2017-09-06T08:37:03.415Z,99.99
2017-09-06T08:38:12.269Z,99.99
2017-09-06T08:39:21.117Z,99.99
2017-09-06T08:40:29.971Z,99.99
2017-09-06T08:41:38.821Z,99.99
2017-09-06T08:42:47.672Z,99.99
2017-09-06T08:43:56.525Z,99.99
2017-09-06T08:45:05.377Z,99.99
2017-09-06T08:46:14.228Z,99.99
2017-09-06T08:47:23.081Z,99.99
2017-09-06T08:48:31.928Z,99.99
2017-09-06T08:49:40.777Z,99.99
2017-09-06T08:50:49.628Z,99.99
2017-09-06T08:51:58.485Z,99.99
2017-09-06T08:53:07.332Z,99.99
2017-09-06T08:54:16.182Z,99.99
2017-09-06T08:55:25.031Z,99.99
2017-09-06T08:56:33.881Z,99.99
2017-09-06T08:57:42.736Z,99.99
2017-09-06T08:58:51.590Z,99.99
2017-09-06T09:00:00.440Z,99.99
2017-09-06T09:01:09.291Z,99.99
2017-09-06T09:02:18.139Z,99.99
2017-09-06T09:03:26.988Z,99.99
2017-09-06T09:04:35.841Z,99.99
2017-09-06T09:05:44.692Z,99.99
2017-09-06T09:06:53.548Z,99.99
2017-09-06T09:08:02.399Z,99.99
2017-09-06T09:09:11.250Z,99.99
2017-09-06T09:10:20.101Z,99.99
2017-09-06T09:11:28.948Z,99.99
2017-09-06T09:12:37.798Z,99.99
2017-09-06T09:13:46.651Z,99.99
2017-09-06T09:14:55.504Z,99.99
2017-09-06T09:16:04.351Z,99.99
2017-09-06T09:17:13.201Z,99.99
2017-09-06T09:18:22.050Z,99.99
2017-09-06T09:19:30.899Z,99.99
2017-09-06T09:20:39.751Z,99.99
2017-09-06T09:21:48.604Z,99.99
2017-09-06T09:22:57.453Z,99.99
2017-09-06T09:24:06.303Z,99.99
2017-09-06T09:25:15.154Z,99.99
2017-09-06T09:26:24.004Z,99.99
2017-09-06T09:27:32.858Z,99.99
2017-09-06T09:28:41.707Z,99.99
2017-09-06T09:29:50.555Z,99.99
2017-09-06T09:30:59.413Z,99.99
2017-09-06T09:32:08.262Z,99.99
2017-09-06T09:33:17.109Z,99.99
2017-09-06T09:34:25.961Z,99.99
2017-09-06T09:35:34.812Z,99.99
2017-09-06T09:36:43.658Z,99.99
2017-09-06T09:37:52.510Z,99.99
2017-09-06T09:39:01.685Z,99.99
2017-09-06T09:40:10.535Z,99.99
2017-09-06T09:41:19.390Z,99.99
2017-09-06T09:42:28.239Z,99.99
2017-09-06T09:43:37.087Z,99.99
2017-09-06T09:44:45.936Z,99.99
2017-09-06T09:45:54.785Z,99.99
2017-09-06T09:47:03.636Z,99.99
2017-09-06T09:48:12.487Z,99.99
2017-09-06T09:49:21.336Z,99.99
2017-09-06T09:50:30.183Z,99.99
2017-09-06T09:51:39.033Z,99.99
2017-09-06T09:52:47.887Z,99.99
2017-09-06T09:53:56.737Z,99.99
2017-09-06T09:55:05.588Z,99.99
2017-09-06T09:56:14.439Z,99.99
2017-09-06T09:57:23.290Z,99.99
2017-09-06T09:58:32.139Z,99.99
2017-09-06T09:59:40.993Z,99.99
2017-09-06T10:00:49.842Z,99.99
2017-09-06T10:01:58.693Z,99.99
2017-09-06T10:03:07.545Z,99.99
2017-09-06T10:04:16.394Z,99.99
2017-09-06T10:05:25.244Z,99.99
2017-09-06T10:06:34.092Z,99.99
2017-09-06T10:07:42.944Z,99.99
2017-09-06T10:08:51.800Z,99.99
2017-09-06T10:10:00.650Z,99.99
2017-09-06T10:11:09.502Z,99.99
2017-09-06T10:12:18.349Z,99.99
2017-09-06T10:13:27.204Z,99.99
2017-09-06T10:14:36.064Z,99.99
2017-09-06T10:15:44.959Z,99.99
2017-09-06T10:16:53.895Z,99.99
2017-09-06T10:18:02.746Z,99.99
2017-09-06T10:19:11.595Z,99.99
2017-09-06T10:20:21.467Z,99.99
2017-09-06T10:21:30.812Z,99.99
2017-09-06T10:22:39.662Z,99.99
2017-09-06T10:23:48.519Z,99.99
2017-09-06T10:24:57.366Z,99.99
2017-09-06T10:26:06.215Z,99.99
2017-09-06T10:27:15.081Z,99.99
2017-09-06T10:28:23.932Z,99.99
2017-09-06T10:29:32.785Z,99.99
2017-09-06T10:30:41.642Z,99.99
2017-09-06T10:31:50.504Z,99.99
2017-09-06T10:32:59.355Z,99.99
2017-09-06T10:34:08.207Z,99.99
2017-09-06T10:35:17.058Z,99.99
2017-09-06T10:36:25.909Z,99.99
2017-09-06T10:37:34.762Z,99.99
2017-09-06T10:38:43.616Z,99.99
2017-09-06T10:39:52.468Z,99.99
2017-09-06T10:41:01.315Z,99.99
2017-09-06T10:42:10.169Z,99.99
2017-09-06T10:43:19.021Z,99.99
2017-09-06T10:44:27.874Z,99.99
2017-09-06T10:45:36.724Z,99.99
2017-09-06T10:46:45.572Z,99.99
2017-09-06T10:47:54.425Z,99.99
2017-09-06T10:49:03.278Z,99.99
2017-09-06T10:50:12.128Z,99.99
2017-09-06T10:51:21.019Z,99.99
2017-09-06T10:52:29.868Z,99.99
2017-09-06T10:53:39.070Z,99.99
2017-09-06T10:54:47.956Z,99.99
2017-09-06T10:55:57.205Z,99.99
2017-09-06T10:57:06.182Z,99.99
2017-09-06T10:58:15.035Z,99.99
2017-09-06T10:59:23.887Z,99.99
2017-09-06T11:00:32.737Z,99.99
2017-09-06T11:01:41.593Z,99.99
2017-09-06T11:02:50.437Z,99.99
2017-09-06T11:03:59.295Z,99.99
2017-09-06T11:05:08.148Z,99.99
2017-09-06T11:06:16.997Z,99.99
2017-09-06T11:07:25.851Z,99.99
2017-09-06T11:08:34.704Z,99.99
2017-09-06T11:09:43.552Z,99.99
2017-09-06T11:10:52.406Z,99.99
2017-09-06T11:12:01.261Z,99.99
2017-09-06T11:13:10.114Z,99.99
2017-09-06T11:14:18.966Z,99.99
2017-09-06T11:15:27.813Z,99.99
2017-09-06T11:16:36.663Z,99.99
2017-09-06T11:17:45.518Z,99.99
2017-09-06T11:18:54.375Z,99.99
2017-09-06T11:20:03.228Z,99.99
2017-09-06T11:21:12.400Z,99.99
2017-09-06T11:22:21.252Z,99.99
2017-09-06T11:23:30.122Z,99.99
2017-09-06T11:24:39.084Z,99.99
2017-09-06T11:25:47.937Z,99.99
2017-09-06T11:26:56.909Z,99.99
2017-09-06T11:28:05.765Z,99.99
2017-09-06T11:29:14.622Z,99.99
2017-09-06T11:30:23.484Z,99.99
2017-09-06T11:31:32.383Z,99.99
2017-09-06T11:32:41.238Z,99.99
2017-09-06T11:33:50.086Z,99.99
2017-09-06T11:34:58.937Z,99.99
2017-09-06T11:36:07.793Z,99.99
2017-09-06T11:37:16.647Z,99.99
2017-09-06T11:38:25.499Z,99.99
2017-09-06T11:39:34.393Z,99.99
2017-09-06T11:40:43.252Z,99.99
2017-09-06T11:41:52.231Z,99.99
2017-09-06T11:43:01.196Z,99.99
2017-09-06T11:44:10.118Z,99.99
2017-09-06T11:45:18.970Z,99.99
2017-09-06T11:46:27.821Z,99.99
2017-09-06T11:47:36.672Z,99.99
2017-09-06T11:48:45.852Z,99.99
2017-09-06T11:49:55.031Z,99.99
2017-09-06T11:51:03.880Z,99.99
2017-09-06T11:52:12.732Z,99.99
2017-09-06T11:53:21.585Z,99.99
2017-09-06T11:54:30.438Z,99.99
2017-09-06T11:55:39.284Z,99.99
2017-09-06T11:56:48.139Z,99.99
2017-09-06T11:57:56.989Z,99.99
2017-09-06T11:59:05.841Z,99.99
2017-09-06T12:00:14.696Z,99.99
2017-09-06T12:01:23.871Z,99.99
2017-09-06T12:02:32.723Z,99.99
2017-09-06T12:03:41.575Z,99.99
2017-09-06T12:04:50.423Z,99.99
2017-09-06T12:05:59.276Z,99.99
2017-09-06T12:07:08.129Z,99.99
2017-09-06T12:08:16.979Z,99.99
2017-09-06T12:09:25.827Z,99.99
2017-09-06T12:10:34.679Z,99.99
2017-09-06T12:11:43.538Z,99.99
2017-09-06T12:12:52.387Z,99.99
2017-09-06T12:14:01.239Z,99.99
2017-09-06T12:15:10.087Z,99.99
2017-09-06T12:16:18.935Z,99.99
2017-09-06T12:17:27.788Z,99.99
2017-09-06T12:18:36.642Z,99.99
2017-09-06T12:19:45.498Z,99.99
2017-09-06T12:20:54.347Z,99.99
2017-09-06T12:22:03.197Z,99.99
2017-09-06T12:23:12.048Z,99.99
2017-09-06T12:24:20.903Z,99.99
2017-09-06T12:25:29.754Z,99.99
2017-09-06T12:26:38.604Z,99.99
2017-09-06T12:27:47.455Z,99.99
2017-09-06T12:28:56.307Z,99.99
2017-09-06T12:30:05.156Z,99.99
2017-09-06T12:31:14.010Z,99.99
2017-09-06T12:32:22.864Z,99.99
2017-09-06T12:33:31.713Z,99.99
2017-09-06T12:34:40.567Z,99.99
2017-09-06T12:35:49.421Z,99.99
2017-09-06T12:36:58.271Z,99.99
2017-09-06T12:38:07.125Z,99.99
2017-09-06T12:39:15.976Z,99.99
2017-09-06T12:40:24.825Z,99.99
2017-09-06T12:41:33.676Z,99.99
2017-09-06T12:42:42.529Z,99.99
2017-09-06T12:43:51.381Z,99.99
2017-09-06T12:45:00.239Z,99.99
2017-09-06T12:46:09.093Z,99.99
2017-09-06T12:47:17.943Z,99.99
2017-09-06T12:48:26.796Z,99.99
2017-09-06T12:49:35.649Z,99.99
2017-09-06T12:50:44.501Z,99.99
2017-09-06T12:51:53.357Z,99.99
2017-09-06T12:53:02.208Z,99.99
2017-09-06T12:54:11.066Z,99.99
2017-09-06T12:55:19.910Z,99.99
2017-09-06T12:56:28.764Z,99.99
2017-09-06T12:57:37.618Z,99.99
2017-09-06T12:58:46.472Z,99.99
2017-09-06T12:59:55.321Z,99.99
2017-09-06T13:01:04.172Z,99.99
2017-09-06T13:02:13.025Z,99.99
2017-09-06T13:03:21.876Z,99.99
2017-09-06T13:04:30.729Z,99.99
2017-09-06T13:05:39.579Z,99.99
2017-09-06T13:06:48.428Z,99.99
2017-09-06T13:07:57.277Z,99.99
2017-09-06T13:09:06.131Z,99.99
2017-09-06T13:10:14.980Z,99.99
2017-09-06T13:11:23.834Z,99.99
2017-09-06T13:12:32.686Z,99.99
2017-09-06T13:13:41.534Z,99.99
2017-09-06T13:14:50.389Z,99.99
2017-09-06T13:15:59.244Z,99.99
2017-09-06T13:17:08.092Z,99.99
2017-09-06T13:18:16.946Z,99.99
2017-09-06T13:19:25.795Z,99.99
2017-09-06T13:20:34.647Z,99.99
2017-09-06T13:21:43.502Z,99.99
2017-09-06T13:22:52.355Z,99.99
2017-09-06T13:24:01.208Z,99.99
2017-09-06T13:25:10.057Z,99.99
2017-09-06T13:26:18.909Z,99.99
2017-09-06T13:27:27.761Z,99.99
2017-09-06T13:28:36.618Z,99.99
2017-09-06T13:29:45.470Z,99.99
2017-09-06T13:30:54.322Z,99.99
2017-09-06T13:32:03.173Z,99.99
2017-09-06T13:33:12.026Z,99.99
2017-09-06T13:34:20.877Z,99.99
2017-09-06T13:35:29.731Z,99.99
2017-09-06T13:36:38.586Z,99.99
2017-09-06T13:37:47.437Z,99.99
2017-09-06T13:38:56.290Z,99.99
2017-09-06T13:40:05.476Z,99.99
2017-09-06T13:41:14.664Z,99.99
2017-09-06T13:42:23.518Z,99.99
2017-09-06T13:43:32.371Z,99.99
2017-09-06T13:44:41.222Z,99.99
2017-09-06T13:45:50.071Z,99.99
2017-09-06T13:46:58.926Z,99.99
2017-09-06T13:48:07.778Z,99.99
2017-09-06T13:49:16.634Z,99.99
2017-09-06T13:50:25.489Z,99.99
2017-09-06T13:51:34.339Z,99.99
2017-09-06T13:52:43.189Z,99.99
2017-09-06T13:53:52.040Z,99.99
2017-09-06T13:55:00.889Z,99.99
2017-09-06T13:56:09.743Z,99.99
2017-09-06T13:57:18.596Z,99.99
2017-09-06T13:58:27.447Z,99.99
2017-09-06T13:59:36.297Z,99.99
2017-09-06T14:00:45.152Z,99.99
2017-09-06T14:01:54.007Z,99.99
2017-09-06T14:03:02.859Z,99.99
2017-09-06T14:04:11.712Z,99.99
2017-09-06T14:05:20.558Z,99.99
2017-09-06T14:06:29.408Z,99.99
2017-09-06T14:07:38.261Z,99.99
2017-09-06T14:08:47.115Z,99.99
2017-09-06T14:09:55.964Z,99.99
2017-09-06T14:11:04.816Z,99.99
2017-09-06T14:12:13.667Z,99.99
2017-09-06T14:13:22.519Z,99.99
2017-09-06T14:14:31.372Z,99.99
2017-09-06T14:15:40.226Z,99.99
2017-09-06T14:16:49.073Z,99.99
2017-09-06T14:17:57.926Z,99.99
2017-09-06T14:19:06.775Z,99.99
2017-09-06T14:20:15.626Z,99.99
2017-09-06T14:21:24.479Z,99.99
2017-09-06T14:22:33.331Z,99.99
2017-09-06T14:23:42.180Z,99.99
2017-09-06T14:24:51.028Z,99.99
2017-09-06T14:25:59.878Z,99.99
2017-09-06T14:27:08.727Z,99.99
2017-09-06T14:28:17.580Z,99.99
2017-09-06T14:29:26.431Z,99.99
2017-09-06T14:30:35.277Z,99.99
2017-09-06T14:31:44.129Z,99.99
2017-09-06T14:32:52.975Z,99.99
2017-09-06T14:34:01.824Z,99.99
2017-09-06T14:35:10.674Z,99.99
2017-09-06T14:36:19.528Z,99.99
2017-09-06T14:37:28.374Z,99.99
2017-09-06T14:38:37.224Z,99.99
2017-09-06T14:39:46.075Z,99.99
2017-09-06T14:40:54.926Z,99.99
2017-09-06T14:42:03.778Z,99.99
2017-09-06T14:43:12.629Z,99.99
2017-09-06T14:44:21.480Z,99.99
2017-09-06T14:45:30.657Z,99.99
2017-09-06T14:46:39.508Z,99.99
2017-09-06T14:47:48.362Z,99.99